Time;durP1;ratioP1;P1;durP2;ratioP2;P2;SDS_P1;SDS_P2;PMS_P1;PMS_P2;Temp;Humidity;BMP_temperature;BMP_pressure;BME280_temperature;BME280_humidity;BME280_pressure;Samples;Min_cycle;Max_cycle;Signal;HPM_P1;HPM_P2
2023/12/25 07:56:27;;;;;;;4.43;1.20;;;;;;;19.14;46.52;97979.81;2129252;27;20129;-76
2023/12/25 07:57:29;;;;;;;9.40;1.80;;;;;;;19.20;46.75;97993.78;2121070;27;20024;-82
2023/12/25 07:58:31;;;;;;;5.28;1.30;;;;;;;19.25;47.03;97996.09;2113665;27;20024;-76
2023/12/25 07:59:33;;;;;;;7.38;1.10;;;;;;;19.28;47.20;97989.84;2130134;27;20136;-77
2023/12/25 08:00:36;;;;;;;5.72;1.20;;;;;;;19.33;47.43;98005.78;2121192;27;20028;-72
2023/12/25 08:01:38;;;;;;;10.93;1.13;;;;;;;19.38;47.63;98015.47;2104010;28;20029;-70
2023/12/25 08:02:40;;;;;;;6.07;1.10;;;;;;;19.43;47.82;97990.53;2112697;27;20040;-71
2023/12/25 08:03:41;;;;;;;8.43;1.00;;;;;;;19.49;47.78;97999.06;2112767;27;20051;-73
2023/12/25 08:04:43;;;;;;;8.38;1.70;;;;;;;19.52;47.81;98009.94;2112922;27;20024;-73
2023/12/25 08:05:48;;;;;;;10.60;2.17;;;;;;;19.59;47.57;97998.97;2113005;27;20109;-73
2023/12/25 08:06:53;;;;;;;8.52;1.30;;;;;;;19.62;47.33;97987.25;2121620;27;20028;-75
2023/12/25 08:07:55;;;;;;;8.02;1.60;;;;;;;19.69;47.14;97975.56;2104323;28;20143;-74
2023/12/25 08:08:56;;;;;;;7.60;1.40;;;;;;;19.73;46.77;97992.66;2096490;27;20029;-74
2023/12/25 08:09:58;;;;;;;11.02;1.80;;;;;;;19.76;46.54;98000.03;2120774;27;21003;-74
2023/12/25 08:11:00;;;;;;;8.75;1.50;;;;;;;19.79;46.24;98006.63;2104341;28;20964;-74
2023/12/25 08:12:01;;;;;;;5.15;1.10;;;;;;;19.81;45.95;98026.09;2096062;27;20028;-74
2023/12/25 08:13:06;;;;;;;7.70;1.75;;;;;;;19.85;45.65;97999.56;2113379;27;20088;-74
2023/12/25 08:14:09;;;;;;;5.72;1.20;;;;;;;19.87;45.44;98013.59;2113210;27;20025;-76
2023/12/25 08:15:13;;;;;;;6.72;1.48;;;;;;;19.90;45.21;98012.78;2096055;28;20052;-75
2023/12/25 08:16:15;;;;;;;8.70;1.40;;;;;;;19.93;44.89;98011.97;2096984;28;20064;-76
2023/12/25 08:17:17;;;;;;;5.45;1.70;;;;;;;19.95;44.39;97998.69;2104699;28;20028;-86
2023/12/25 08:18:19;;;;;;;7.65;1.77;;;;;;;19.99;44.27;97993.22;2096637;28;20022;-86
2023/12/25 08:19:26;;;;;;;8.80;1.67;;;;;;;20.03;44.32;98021.25;2105297;27;20152;-89
2023/12/25 08:20:27;;;;;;;9.18;1.73;;;;;;;20.05;44.12;98025.13;2098333;28;20084;-89
2023/12/25 08:21:34;;;;;;;13.00;3.92;;;;;;;20.08;44.13;98029.78;2097243;27;20029;-87
2023/12/25 08:22:35;;;;;;;39.33;19.48;;;;;;;20.11;43.59;98018.06;2105447;27;20104;-82
2023/12/25 08:23:37;;;;;;;43.95;24.70;;;;;;;20.13;43.56;98025.81;2121792;27;20851;-82
2023/12/25 08:24:39;;;;;;;51.75;29.77;;;;;;;20.16;43.32;98014.09;2129718;27;20031;-82
2023/12/25 08:25:41;;;;;;;48.65;29.02;;;;;;;20.17;43.05;98031.22;2121549;27;20099;-82
2023/12/25 08:26:42;;;;;;;46.22;27.15;;;;;;;20.22;43.07;98017.16;2104151;28;20067;-82
2023/12/25 08:27:46;;;;;;;47.15;25.25;;;;;;;20.23;42.69;98021.44;2096310;28;20072;-81
2023/12/25 08:28:52;;;;;;;46.42;26.40;;;;;;;20.26;42.65;98035.03;2105266;27;20748;-72
2023/12/25 08:29:53;;;;;;;44.72;24.17;;;;;;;20.28;42.76;98029.19;2106093;27;20056;-79
2023/12/25 08:30:55;;;;;;;40.53;23.08;;;;;;;20.31;42.89;98036.56;2113237;27;20135;-85
2023/12/25 08:31:59;;;;;;;36.40;20.73;;;;;;;20.32;42.80;98017.03;2129835;27;20055;-78
2023/12/25 08:33:00;;;;;;;32.22;18.55;;;;;;;20.36;42.43;98041.56;2130281;27;20880;-77
2023/12/25 08:34:03;;;;;;;33.40;18.63;;;;;;;20.37;42.23;98018.56;2121059;27;20135;-82
2023/12/25 08:35:04;;;;;;;32.45;15.60;;;;;;;20.41;42.26;98045.81;2121283;27;20081;-74
2023/12/25 08:36:09;;;;;;;28.27;15.60;;;;;;;20.42;42.08;98053.59;2121541;27;20110;-77
2023/12/25 08:37:12;;;;;;;27.58;14.93;;;;;;;20.46;42.06;98016.13;2105164;27;20104;-76
2023/12/25 08:38:16;;;;;;;27.15;14.82;;;;;;;20.49;42.07;98039.91;2113783;27;20028;-83
2023/12/25 08:39:20;;;;;;;23.02;12.70;;;;;;;20.52;42.04;98043.78;2120678;27;20868;-80
2023/12/25 08:40:25;;;;;;;19.58;11.45;;;;;;;20.55;41.74;98051.94;2113566;27;20028;-82
2023/12/25 08:41:30;;;;;;;21.25;11.40;;;;;;;20.58;41.61;98023.81;2114966;27;20090;-82
2023/12/25 08:42:36;;;;;;;20.95;10.65;;;;;;;20.62;41.53;98034.72;2122151;27;20869;-80
2023/12/25 08:43:37;;;;;;;24.38;10.30;;;;;;;20.65;41.48;98044.81;2112241;27;20229;-72
2023/12/25 08:44:39;;;;;;;20.67;10.30;;;;;;;20.68;41.56;98059.59;2104642;27;20068;-74
2023/12/25 08:45:46;;;;;;;19.60;9.18;;;;;;;20.72;41.27;98043.97;2105157;27;20993;-76
2023/12/25 08:46:53;;;;;;;21.40;8.68;;;;;;;20.74;41.09;98047.84;2115952;27;20039;-75
2023/12/25 08:47:56;;;;;;;19.45;8.40;;;;;;;20.76;40.94;98064.56;2121320;27;20082;-76
2023/12/25 08:49:00;;;;;;;17.88;7.60;;;;;;;20.77;40.74;98057.91;2121639;27;20042;-76
2023/12/25 08:50:01;;;;;;;18.67;6.82;;;;;;;20.82;40.97;98059.44;2112836;27;20750;-77
2023/12/25 08:51:04;;;;;;;14.60;7.72;;;;;;;20.83;40.90;98050.81;2104523;27;20087;-78
2023/12/25 08:52:06;;;;;;;17.58;7.00;;;;;;;20.89;40.85;98075.75;2112967;27;20158;-79
2023/12/25 08:53:10;;;;;;;13.13;6.05;;;;;;;20.92;40.74;98053.06;2121636;27;20055;-79
2023/12/25 08:54:18;;;;;;;15.20;5.80;;;;;;;20.96;40.59;98063.97;2113885;27;20035;-85
2023/12/25 08:55:19;;;;;;;11.80;5.47;;;;;;;21.01;40.25;98080.69;2113675;27;20881;-82
2023/12/25 08:56:43;;;;;;;10.88;5.32;;;;;;;21.08;40.30;98070.84;2120788;27;20830;-82
2023/12/25 08:57:46;;;;;;;12.27;4.85;;;;;;;21.13;40.30;98057.50;2119115;27;20074;-76
2023/12/25 08:58:47;;;;;;;12.27;5.13;;;;;;;21.19;40.03;98072.25;2104826;28;20033;-85
2023/12/25 08:59:50;;;;;;;13.70;6.32;;;;;;;21.24;40.17;98062.81;2110366;27;20035;-81
2023/12/25 09:00:52;;;;;;;15.18;5.25;;;;;;;21.29;40.24;98062.38;2113323;27;20026;-82
2023/12/25 09:01:54;;;;;;;15.00;5.35;;;;;;;21.35;40.36;98062.69;2103774;28;20029;-73
2023/12/25 09:02:55;;;;;;;13.80;5.63;;;;;;;21.38;40.26;98059.94;2095374;28;20041;-79
2023/12/25 09:03:57;;;;;;;13.88;5.45;;;;;;;21.44;40.26;98035.66;2102200;28;20029;-81
2023/12/25 09:04:58;;;;;;;15.98;6.13;;;;;;;21.48;39.84;98056.28;2103315;27;20041;-78
2023/12/25 09:06:02;;;;;;;15.57;6.57;;;;;;;21.55;39.59;98060.09;2103625;28;20095;-74
2023/12/25 09:07:07;;;;;;;17.48;5.05;;;;;;;21.59;39.08;98066.28;2101978;28;20102;-84
2023/12/25 09:08:13;;;;;;;13.65;4.75;;;;;;;21.61;39.05;98048.28;2098342;28;20099;-81
2023/12/25 09:09:14;;;;;;;15.05;4.90;;;;;;;21.64;38.94;98054.88;2099483;28;20036;-82
2023/12/25 09:10:16;;;;;;;14.70;4.72;;;;;;;21.66;38.75;98049.78;2089299;28;20216;-74
2023/12/25 09:11:17;;;;;;;12.20;4.53;;;;;;;21.68;38.55;98080.22;2072122;28;20869;-76
2023/12/25 09:12:22;;;;;;;14.75;4.15;;;;;;;21.69;38.46;98057.13;2081099;28;20205;-80
2023/12/25 09:13:26;;;;;;;12.63;3.88;;;;;;;21.70;38.35;98047.75;2090125;28;20143;-76
2023/12/25 09:14:31;;;;;;;12.98;4.15;;;;;;;21.72;38.42;98064.50;2098471;28;20123;-76
2023/12/25 09:15:35;;;;;;;11.15;4.18;;;;;;;21.72;37.90;98057.09;2097477;28;20021;-76
2023/12/25 09:16:36;;;;;;;12.75;4.20;;;;;;;21.71;37.73;98062.97;2089824;28;20037;-77
2023/12/25 09:17:40;;;;;;;14.25;3.78;;;;;;;21.70;37.87;98055.97;2096465;28;20158;-72
2023/12/25 09:18:44;;;;;;;11.98;4.00;;;;;;;21.69;37.85;98049.72;2096629;28;20146;-77
2023/12/25 09:19:48;;;;;;;9.30;3.70;;;;;;;21.69;37.86;98063.41;2094592;28;20143;-80
2023/12/25 09:20:50;;;;;;;10.75;4.05;;;;;;;21.68;37.75;98047.41;2089781;28;20889;-82
2023/12/25 09:21:51;;;;;;;15.82;3.30;;;;;;;21.67;37.67;98056.78;2087943;28;20030;-79
2023/12/25 09:22:53;;;;;;;8.80;3.30;;;;;;;21.67;37.60;98051.31;2106097;28;20025;-86
2023/12/25 09:23:58;;;;;;;10.20;3.30;;;;;;;21.63;37.70;98061.56;2114259;28;20889;-85
2023/12/25 09:24:59;;;;;;;9.93;3.40;;;;;;;21.65;37.88;98075.56;2105971;28;20079;-83
2023/12/25 09:26:00;;;;;;;13.68;3.33;;;;;;;21.65;37.72;98075.56;2097553;28;20098;-81
2023/12/25 09:27:02;;;;;;;10.45;3.70;;;;;;;21.63;37.46;98077.97;2089332;28;20852;-77
2023/12/25 09:28:05;;;;;;;9.43;3.17;;;;;;;21.61;37.13;98075.63;2089367;28;20051;-73
2023/12/25 09:29:10;;;;;;;14.00;3.25;;;;;;;21.60;37.08;98040.50;2090269;28;20029;-73
2023/12/25 09:30:14;;;;;;;11.40;2.80;;;;;;;21.58;36.95;98032.69;2098663;28;20144;-75
2023/12/25 09:31:16;;;;;;;10.30;2.35;;;;;;;21.57;37.18;98085.06;2106587;28;21262;-76
2023/12/25 09:32:18;;;;;;;10.70;2.92;;;;;;;21.56;37.52;98080.78;2089149;28;20037;-73
2023/12/25 09:33:26;;;;;;;10.50;2.78;;;;;;;21.59;37.65;98082.69;2098922;28;20036;-78
2023/12/25 09:34:27;;;;;;;7.75;2.35;;;;;;;21.60;37.95;98078.78;2114170;28;20027;-69
2023/12/25 09:35:31;;;;;;;6.82;2.35;;;;;;;21.62;38.15;98101.00;2088229;28;20084;-74
2023/12/25 09:36:33;;;;;;;7.80;2.75;;;;;;;21.64;38.42;98055.66;2090717;28;21084;-73
2023/12/25 09:37:40;;;;;;;6.03;2.20;;;;;;;21.69;38.58;98054.41;2114848;28;20043;-73
2023/12/25 09:38:42;;;;;;;6.97;2.33;;;;;;;21.74;38.70;98089.50;2103005;28;20169;-74
2023/12/25 09:39:45;;;;;;;8.32;2.50;;;;;;;21.78;38.97;98075.75;2094694;28;20041;-75
2023/12/25 09:40:49;;;;;;;4.88;2.28;;;;;;;21.82;39.07;98090.94;1174199;27;10000860;-77
2023/12/25 09:41:51;;;;;;;5.97;2.60;;;;;;;21.85;39.24;98068.25;2071601;28;20048;-78
2023/12/25 09:42:53;;;;;;;7.68;2.50;;;;;;;21.90;39.38;98075.19;2071811;28;20042;-81
2023/12/25 09:43:56;;;;;;;5.80;2.53;;;;;;;21.95;39.53;98082.94;2082289;28;20054;-79
2023/12/25 09:44:58;;;;;;;6.13;2.67;;;;;;;21.98;39.58;98050.03;2069995;28;20061;-85
2023/12/25 09:46:02;;;;;;;6.82;2.63;;;;;;;22.03;39.66;98078.88;2071765;28;20057;-86
2023/12/25 09:47:06;;;;;;;5.22;2.70;;;;;;;22.11;39.72;98076.81;2072757;28;20043;-81
2023/12/25 09:48:08;;;;;;;4.65;2.58;;;;;;;22.15;39.88;98075.56;2072558;28;20041;-86
2023/12/25 09:49:14;;;;;;;5.78;2.60;;;;;;;22.23;39.89;98059.84;2080508;28;20185;-79
2023/12/25 09:50:17;;;;;;;7.10;2.78;;;;;;;22.28;40.05;98061.31;2056376;28;20058;-81
2023/12/25 09:51:21;;;;;;;5.57;2.50;;;;;;;22.34;40.02;98071.34;2056374;28;20047;-84
2023/12/25 09:52:23;;;;;;;6.32;2.40;;;;;;;22.38;40.09;98035.69;2068818;28;20101;-84
2023/12/25 09:53:24;;;;;;;6.90;2.80;;;;;;;22.41;40.08;98060.28;2064225;28;20050;-85
2023/12/25 09:54:26;;;;;;;6.88;2.35;;;;;;;22.46;40.22;98080.16;2071453;28;20198;-85
2023/12/25 09:55:28;;;;;;;7.45;2.72;;;;;;;22.51;40.19;98069.50;2056381;28;21380;-86
2023/12/25 09:56:35;;;;;;;7.25;2.85;;;;;;;22.56;40.16;98060.03;2055013;28;20047;-82
2023/12/25 09:57:37;;;;;;;6.30;2.55;;;;;;;22.60;40.21;98039.59;2057106;28;20034;-76
2023/12/25 09:58:42;;;;;;;5.82;2.20;;;;;;;22.65;40.38;98068.47;2063461;28;20042;-78
2023/12/25 09:59:44;;;;;;;10.10;3.65;;;;;;;22.70;40.18;98064.44;2049099;28;20048;-83
2023/12/25 10:00:47;;;;;;;8.32;3.20;;;;;;;22.73;40.32;98091.78;2054694;28;20822;-77
2023/12/25 10:01:51;;;;;;;8.65;3.28;;;;;;;22.78;40.37;98076.81;2063843;28;20789;-72
2023/12/25 10:02:54;;;;;;;8.63;3.03;;;;;;;22.83;40.28;98062.66;2069812;28;20137;-75
2023/12/25 10:03:58;;;;;;;5.80;2.92;;;;;;;22.88;40.35;98097.75;2069620;28;20851;-76
2023/12/25 10:05:01;;;;;;;5.80;3.00;;;;;;;22.91;40.12;98097.69;2066594;28;20885;-76
2023/12/25 10:06:07;;;;;;;5.03;2.42;;;;;;;22.97;40.08;98047.91;2069803;28;20110;-76
2023/12/25 10:07:12;;;;;;;5.22;2.20;;;;;;;23.00;39.92;98047.06;2069608;28;20874;-76
2023/12/25 10:08:16;;;;;;;7.35;2.45;;;;;;;23.02;39.72;98070.13;2064476;28;20838;-76
2023/12/25 10:09:21;;;;;;;8.00;2.47;;;;;;;23.06;39.69;98072.78;2066559;28;20130;-80
2023/12/25 10:10:29;;;;;;;5.45;2.25;;;;;;;23.08;39.64;98073.13;2075691;28;20876;-80
2023/12/25 10:11:37;;;;;;;5.78;2.00;;;;;;;23.10;39.55;98035.09;2080308;28;20038;-77
2023/12/25 10:12:45;;;;;;;3.95;1.70;;;;;;;23.10;39.50;98055.06;2058456;28;20056;-78
2023/12/25 10:13:47;;;;;;;4.65;2.15;;;;;;;23.14;39.56;98065.97;2047536;28;20075;-78
2023/12/25 10:14:49;;;;;;;5.63;2.00;;;;;;;23.16;39.47;98069.03;2035171;29;20045;-79
2023/12/25 10:15:53;;;;;;;4.22;1.58;;;;;;;23.15;39.58;98039.31;2034197;28;20148;-75
2023/12/25 10:16:57;;;;;;;4.65;1.85;;;;;;;23.20;39.51;98068.97;2041477;28;20036;-76
2023/12/25 10:18:05;;;;;;;4.68;1.80;;;;;;;23.21;39.45;98054.84;2032303;28;20100;-77
2023/12/25 10:19:11;;;;;;;4.53;1.80;;;;;;;23.22;39.47;98070.09;2038205;28;20055;-75
2023/12/25 10:20:18;;;;;;;5.55;2.10;;;;;;;23.24;39.62;98075.94;2074122;28;20804;-75
2023/12/25 10:21:20;;;;;;;4.65;1.75;;;;;;;23.28;39.59;98092.28;2073535;28;20053;-77
2023/12/25 10:22:38;;;;;;;3.53;1.65;;;;;;;23.29;39.62;98064.44;2072845;28;20777;-74
2023/12/25 10:23:40;;;;;;;4.80;1.60;;;;;;;23.30;39.54;98076.97;2075075;28;20038;-74
2023/12/25 10:24:41;;;;;;;4.95;2.13;;;;;;;23.32;39.59;98079.28;2077820;28;20042;-76
2023/12/25 10:25:44;;;;;;;4.55;1.70;;;;;;;23.34;39.64;98093.34;2065406;28;20034;-77
2023/12/25 10:26:46;;;;;;;4.82;1.70;;;;;;;23.35;39.77;98079.19;2075260;28;20034;-75
2023/12/25 10:27:48;;;;;;;3.25;1.60;;;;;;;23.38;39.63;98093.25;2058291;28;20839;-77
2023/12/25 10:28:50;;;;;;;3.42;1.42;;;;;;;23.39;39.71;98103.78;2051933;28;20756;-74
2023/12/25 10:29:52;;;;;;;4.55;1.67;;;;;;;23.40;39.56;98077.94;2064552;28;20038;-75
2023/12/25 10:31:07;;;;;;;2.88;1.60;;;;;;;23.41;39.71;98079.47;2064856;28;20035;-74
2023/12/25 10:32:21;;;;;;;4.40;1.80;;;;;;;23.43;39.59;98099.03;2054948;28;20075;-73
2023/12/25 10:33:26;;;;;;;3.95;1.70;;;;;;;23.45;39.69;98093.88;2067336;28;20035;-74
2023/12/25 10:34:30;;;;;;;3.22;1.60;;;;;;;23.44;39.73;98102.53;2069025;28;20477;-74
2023/12/25 10:35:35;;;;;;;2.90;1.50;;;;;;;23.46;39.62;98100.16;2066542;28;20035;-75
2023/12/25 10:36:38;;;;;;;2.85;1.42;;;;;;;23.47;39.69;98112.66;2062938;28;20889;-77
2023/12/25 10:37:42;;;;;;;3.10;1.27;;;;;;;23.49;39.66;98102.81;2058464;28;20043;-77
2023/12/25 10:38:46;;;;;;;3.35;1.48;;;;;;;23.50;39.77;98112.56;2071688;28;20177;-75
2023/12/25 10:39:48;;;;;;;3.38;1.45;;;;;;;23.51;39.58;98083.94;2072032;28;20035;-76
2023/12/25 10:40:50;;;;;;;2.50;1.40;;;;;;;23.53;39.79;98092.53;2064750;28;20231;-75
2023/12/25 10:41:57;;;;;;;2.58;1.30;;;;;;;23.54;39.67;98087.81;2072921;28;20041;-76
2023/12/25 10:42:59;;;;;;;3.72;1.60;;;;;;;23.54;39.74;98099.53;2069691;28;21203;-75
2023/12/25 10:44:02;;;;;;;3.67;1.55;;;;;;;23.54;39.81;98105.03;2056935;28;20108;-80
2023/12/25 10:45:05;;;;;;;2.42;1.40;;;;;;;23.55;39.84;98094.84;2065102;28;20879;-75
2023/12/25 10:46:10;;;;;;;3.35;1.50;;;;;;;23.54;39.75;98099.53;2064900;28;20042;-74
2023/12/25 10:47:13;;;;;;;3.05;1.35;;;;;;;23.56;39.76;98096.41;2064146;28;20891;-77
2023/12/25 10:48:15;;;;;;;2.95;1.45;;;;;;;23.57;39.79;98095.19;2065342;28;20039;-76
2023/12/25 10:49:17;;;;;;;2.72;1.35;;;;;;;23.57;39.90;98114.38;2081263;28;20829;-80
2023/12/25 10:50:27;;;;;;;2.38;1.17;;;;;;;23.57;39.95;98087.72;2080396;28;20033;-85
2023/12/25 10:51:33;;;;;;;2.90;1.48;;;;;;;23.57;39.79;98065.00;2059026;28;20587;-81
2023/12/25 10:52:35;;;;;;;3.08;1.30;;;;;;;23.57;39.80;98097.94;2059034;28;20031;-82
2023/12/25 10:53:37;;;;;;;3.58;1.38;;;;;;;23.58;39.82;98088.50;2061965;28;20154;-77
2023/12/25 10:54:40;;;;;;;4.22;1.98;;;;;;;23.58;39.90;98099.47;2069214;28;20213;-82
2023/12/25 10:55:44;;;;;;;3.55;1.45;;;;;;;23.58;39.89;98108.50;2078529;28;20168;-79
2023/12/25 10:56:51;;;;;;;5.50;2.28;;;;;;;23.58;39.84;98113.97;2097235;28;20036;-81
2023/12/25 10:57:56;;;;;;;5.32;1.77;;;;;;;23.58;39.80;98104.94;2097534;28;20131;-79
2023/12/25 10:59:06;;;;;;;3.25;1.40;;;;;;;23.59;39.94;98079.09;2094442;28;20029;-74
2023/12/25 11:00:10;;;;;;;4.22;1.40;;;;;;;23.58;39.89;98118.66;2087455;28;20069;-76
2023/12/25 11:01:13;;;;;;;3.22;1.63;;;;;;;23.59;39.91;98101.03;2080086;28;20065;-76
2023/12/25 11:02:16;;;;;;;4.45;1.40;;;;;;;23.59;40.05;98117.50;2080966;28;20839;-77
2023/12/25 11:03:17;;;;;;;2.38;1.20;;;;;;;23.57;39.87;98131.59;2080635;28;20821;-75
2023/12/25 11:04:20;;;;;;;3.47;1.10;;;;;;;23.60;39.86;98113.53;2080112;28;20084;-75
2023/12/25 11:05:22;;;;;;;3.20;1.60;;;;;;;23.59;40.02;98112.00;2068377;28;20117;-75
2023/12/25 11:06:24;;;;;;;4.40;1.67;;;;;;;23.58;40.01;98130.44;2071851;28;21003;-74
2023/12/25 11:07:26;;;;;;;4.18;1.30;;;;;;;23.60;39.96;98105.31;2073036;28;21034;-75
2023/12/25 11:08:27;;;;;;;3.28;1.30;;;;;;;23.60;39.78;98113.53;2096073;28;21103;-82
2023/12/25 11:09:31;;;;;;;3.33;1.30;;;;;;;23.59;40.03;98139.44;2089095;28;20033;-73
2023/12/25 11:10:39;;;;;;;1.92;1.20;;;;;;;23.60;40.10;98124.50;2096765;28;20088;-89
2023/12/25 11:11:41;;;;;;;4.35;1.45;;;;;;;23.60;39.98;98125.28;2097619;28;20029;-87
2023/12/25 11:12:44;;;;;;;4.40;1.75;;;;;;;23.57;40.00;98084.22;2097197;28;21244;-86
2023/12/25 11:13:46;;;;;;;5.45;1.85;;;;;;;23.60;39.84;98124.50;2081151;28;20046;-88
2023/12/25 11:14:50;;;;;;;4.05;1.60;;;;;;;23.60;39.91;98132.72;2092806;28;21008;-86
2023/12/25 11:15:52;;;;;;;4.07;1.80;;;;;;;23.60;39.79;98146.44;2096729;28;20037;-84
2023/12/25 11:16:54;;;;;;;3.83;1.45;;;;;;;23.59;39.77;98156.66;2096980;28;20155;-85
2023/12/25 11:18:01;;;;;;;4.40;1.90;;;;;;;23.60;39.94;98135.47;2096487;28;20038;-82
2023/12/25 11:19:03;;;;;;;5.05;1.80;;;;;;;23.59;39.88;98145.69;2105827;28;20159;-85
2023/12/25 11:20:09;;;;;;;4.28;1.35;;;;;;;23.60;39.63;98128.03;2105375;28;20032;-80
2023/12/25 11:21:15;;;;;;;5.90;1.95;;;;;;;23.60;39.57;98135.47;2081795;28;20168;-79
2023/12/25 11:22:30;;;;;;;4.57;2.00;;;;;;;23.58;39.51;98132.38;2081507;28;20034;-78
2023/12/25 11:23:35;;;;;;;5.45;1.80;;;;;;;23.56;39.29;98152.03;2068379;28;20153;-76
2023/12/25 11:24:40;;;;;;;5.18;1.95;;;;;;;23.58;39.26;98143.34;2080730;28;20128;-76
2023/12/25 11:25:44;;;;;;;3.90;1.65;;;;;;;23.56;39.43;98154.00;2086383;28;20029;-76
2023/12/25 11:26:45;;;;;;;6.13;1.60;;;;;;;23.56;39.46;98145.75;2080600;28;20034;-75
2023/12/25 11:27:56;;;;;;;4.68;1.80;;;;;;;23.55;39.40;98150.47;2080879;28;20034;-75
2023/12/25 11:29:08;;;;;;;4.35;1.73;;;;;;;23.55;39.50;98142.25;2080514;28;20044;-77
2023/12/25 11:30:13;;;;;;;5.05;1.95;;;;;;;23.54;39.53;98143.44;2083544;28;20080;-76
2023/12/25 11:31:21;;;;;;;6.15;1.85;;;;;;;23.53;39.34;98152.88;2072976;28;20042;-78
2023/12/25 11:32:23;;;;;;;4.07;1.58;;;;;;;23.54;39.36;98168.13;2066068;28;20177;-75
2023/12/25 11:33:24;;;;;;;5.88;1.85;;;;;;;23.53;39.36;98168.56;2072685;28;20030;-74
2023/12/25 11:34:30;;;;;;;4.95;1.63;;;;;;;23.52;39.45;98159.56;2088031;28;20038;-72
2023/12/25 11:35:33;;;;;;;4.85;1.45;;;;;;;23.53;39.22;98176.78;2092515;28;21283;-75
2023/12/25 11:36:36;;;;;;;4.95;1.88;;;;;;;23.51;39.46;98177.19;2089308;28;20132;-76
2023/12/25 11:37:38;;;;;;;4.25;1.60;;;;;;;23.53;39.33;98179.53;2089023;28;20033;-76
2023/12/25 11:38:54;;;;;;;4.68;1.63;;;;;;;23.51;39.46;98141.53;2072750;28;20035;-76
2023/12/25 11:40:05;;;;;;;4.03;1.88;;;;;;;23.51;39.53;98168.19;2085167;28;20102;-76
2023/12/25 11:41:11;;;;;;;2.75;1.52;;;;;;;23.51;39.47;98160.72;2095759;28;20844;-74
2023/12/25 11:42:12;;;;;;;3.80;1.80;;;;;;;23.51;39.39;98176.41;2087367;28;20037;-76
2023/12/25 11:43:17;;;;;;;4.72;1.52;;;;;;;23.50;39.53;98185.84;2088733;28;20140;-77
2023/12/25 11:44:32;;;;;;;4.97;1.80;;;;;;;23.50;39.62;98177.63;2091416;28;20040;-74
2023/12/25 11:45:43;;;;;;;3.72;1.63;;;;;;;23.50;39.55;98186.63;2091478;28;20044;-78
2023/12/25 11:46:48;;;;;;;3.45;1.60;;;;;;;23.51;39.59;98181.91;2090050;28;20058;-76
2023/12/25 11:47:50;;;;;;;4.80;1.60;;;;;;;23.50;39.54;98170.16;2082462;28;20457;-78
2023/12/25 11:49:00;;;;;;;3.08;1.60;;;;;;;23.50;39.66;98158.44;2081387;28;20168;-81
2023/12/25 11:50:02;;;;;;;5.35;2.10;;;;;;;23.50;39.62;98169.41;2090614;28;21241;-77
2023/12/25 11:51:20;;;;;;;4.70;1.83;;;;;;;23.49;39.59;98179.59;2092838;28;20882;-78
2023/12/25 11:52:42;;;;;;;5.47;1.88;;;;;;;23.50;39.68;98205.81;2081461;28;20049;-79
2023/12/25 11:53:45;;;;;;;8.45;2.45;;;;;;;23.49;39.68;98159.63;2083964;28;20045;-78
2023/12/25 11:54:48;;;;;;;6.05;2.20;;;;;;;23.50;39.69;98199.56;2084762;28;20156;-78
2023/12/25 11:55:49;;;;;;;5.30;2.42;;;;;;;23.49;39.67;98190.56;2082297;28;20172;-80
2023/12/25 11:56:51;;;;;;;6.65;2.13;;;;;;;23.49;39.72;98196.06;2091370;28;20672;-84
2023/12/25 11:57:53;;;;;;;3.20;1.63;;;;;;;23.50;39.71;98210.53;2097911;28;20037;-79
2023/12/25 11:58:55;;;;;;;7.20;1.80;;;;;;;23.49;39.90;98206.25;2091646;28;20033;-78
2023/12/25 12:00:00;;;;;;;5.13;2.13;;;;;;;23.49;39.74;98179.59;2082618;28;20033;-80
2023/12/25 12:01:04;;;;;;;6.03;1.70;;;;;;;23.52;39.77;98227.34;2081949;28;20852;-80
2023/12/25 12:02:15;;;;;;;6.75;1.98;;;;;;;23.50;39.84;98189.38;2076816;28;20179;-82
2023/12/25 12:03:19;;;;;;;5.80;1.77;;;;;;;23.53;39.76;98185.00;2092543;28;20048;-83
2023/12/25 12:04:24;;;;;;;4.55;1.65;;;;;;;23.53;39.90;98201.47;2092967;28;20136;-84
2023/12/25 12:05:30;;;;;;;6.18;2.38;;;;;;;23.52;39.89;98208.16;2093587;28;20040;-80
2023/12/25 12:06:35;;;;;;;5.68;1.90;;;;;;;23.52;39.77;98197.94;2085200;28;20038;-82
2023/12/25 12:07:39;;;;;;;5.00;1.98;;;;;;;23.53;39.95;98199.50;2086479;28;20042;-76
2023/12/25 12:08:43;;;;;;;7.28;2.50;;;;;;;23.53;39.91;98195.97;2075933;28;20047;-78
2023/12/25 12:09:47;;;;;;;25.70;7.97;;;;;;;23.54;39.69;98219.47;2060705;28;20042;-74
2023/12/25 12:10:51;;;;;;;39.97;9.30;;;;;;;23.52;39.10;98219.13;2090207;28;20030;-78
2023/12/25 12:11:52;;;;;;;27.88;8.80;;;;;;;23.50;38.64;98211.31;2090489;28;20040;-77
2023/12/25 12:12:59;;;;;;;31.08;9.43;;;;;;;23.46;38.13;98215.34;2086410;28;20815;-77
2023/12/25 12:14:02;;;;;;;26.73;8.07;;;;;;;23.43;37.69;98224.41;2090323;28;20049;-79
2023/12/25 12:15:08;;;;;;;78.53;27.75;;;;;;;23.38;37.37;98216.66;2089043;28;20041;-78
2023/12/25 12:16:11;;;;;;;60.13;19.45;;;;;;;23.32;37.16;98222.63;2086347;28;20045;-78
2023/12/25 12:17:13;;;;;;;45.75;16.08;;;;;;;23.27;37.08;98238.81;2088150;28;20748;-77
2023/12/25 12:18:15;;;;;;;45.35;13.23;;;;;;;23.21;36.77;98240.47;2090018;28;20753;-81
2023/12/25 12:19:18;;;;;;;36.90;13.15;;;;;;;23.16;36.78;98238.22;2073356;28;20765;-82
2023/12/25 12:20:20;;;;;;;33.20;11.88;;;;;;;23.09;36.44;98236.38;2057344;28;20185;-81
2023/12/25 12:21:21;;;;;;;28.70;10.43;;;;;;;23.03;36.40;98216.13;2080617;28;20026;-87
2023/12/25 12:22:24;;;;;;;32.55;12.05;;;;;;;22.97;36.72;98226.78;2089703;28;20148;-86
2023/12/25 12:23:27;;;;;;;37.47;11.00;;;;;;;22.91;37.20;98240.16;2081299;28;21219;-76
2023/12/25 12:24:30;;;;;;;37.65;10.70;;;;;;;22.89;37.59;98242.56;2081630;28;20030;-81
2023/12/25 12:25:34;;;;;;;33.15;10.18;;;;;;;22.85;37.56;98233.59;2089248;28;20212;-71
2023/12/25 12:26:36;;;;;;;30.17;9.35;;;;;;;22.83;37.72;98238.75;2081206;28;20084;-77
2023/12/25 12:27:38;;;;;;;28.65;9.40;;;;;;;22.83;37.87;98246.19;2072980;28;20038;-74
2023/12/25 12:28:40;;;;;;;26.40;8.48;;;;;;;22.81;38.14;98230.16;2073238;28;20129;-85
2023/12/25 12:29:42;;;;;;;31.27;8.82;;;;;;;22.83;38.26;98237.97;2081505;28;20248;-76
2023/12/25 12:30:44;;;;;;;24.73;8.80;;;;;;;22.81;38.45;98241.13;2080794;28;20165;-75
2023/12/25 12:31:47;;;;;;;29.52;8.85;;;;;;;22.83;38.51;98221.53;2065151;28;20035;-76
2023/12/25 12:32:50;;;;;;;28.13;9.20;;;;;;;22.83;38.63;98230.53;2081802;28;20048;-78
2023/12/25 12:33:52;;;;;;;26.92;8.77;;;;;;;22.83;38.63;98238.75;2080730;28;20041;-76
2023/12/25 12:34:54;;;;;;;28.17;8.00;;;;;;;22.84;38.46;98223.84;2065121;28;20035;-78
2023/12/25 12:35:56;;;;;;;23.40;8.48;;;;;;;22.84;38.50;98254.00;2081075;28;20068;-73
2023/12/25 12:37:03;;;;;;;23.55;7.30;;;;;;;22.85;38.71;98236.34;2073204;28;20077;-73
2023/12/25 12:38:10;;;;;;;23.92;7.40;;;;;;;22.87;38.81;98236.72;2073857;28;20042;-79
2023/12/25 12:39:12;;;;;;;21.20;7.15;;;;;;;22.87;38.83;98227.72;2066208;28;20868;-81
2023/12/25 12:40:13;;;;;;;23.98;7.55;;;;;;;22.88;38.76;98251.19;2071230;28;20038;-80
2023/12/25 12:41:15;;;;;;;18.98;6.47;;;;;;;22.89;38.64;98245.31;2079785;28;20037;-81
2023/12/25 12:42:21;;;;;;;19.58;6.40;;;;;;;22.89;38.73;98258.22;2087458;28;20022;-80
2023/12/25 12:43:22;;;;;;;20.20;6.82;;;;;;;22.90;38.80;98251.56;2072186;28;20802;-80
2023/12/25 12:44:24;;;;;;;21.30;6.57;;;;;;;22.91;38.84;98245.66;2080837;28;20038;-78
2023/12/25 12:45:25;;;;;;;18.02;6.55;;;;;;;22.93;38.78;98214.34;2081720;28;20033;-79
2023/12/25 12:46:28;;;;;;;16.38;6.10;;;;;;;22.91;38.54;98253.88;2073450;28;20064;-79
2023/12/25 12:47:31;;;;;;;17.58;6.43;;;;;;;22.91;38.55;98272.28;2082629;28;20033;-78
2023/12/25 12:48:33;;;;;;;17.70;6.03;;;;;;;22.94;38.51;98259.75;2089757;28;20080;-80
2023/12/25 12:49:35;;;;;;;15.57;5.65;;;;;;;22.93;38.61;98249.94;2073113;28;20034;-80
2023/12/25 12:50:38;;;;;;;15.85;5.80;;;;;;;22.92;38.56;98224.53;2080774;28;21206;-80
2023/12/25 12:51:39;;;;;;;17.75;5.88;;;;;;;22.93;38.36;98271.88;2089720;28;20045;-81
2023/12/25 12:52:43;;;;;;;13.55;5.30;;;;;;;22.93;38.55;98274.63;2089625;28;20026;-76
2023/12/25 12:53:46;;;;;;;13.98;4.90;;;;;;;22.92;38.50;98282.06;2081187;28;20025;-79
2023/12/25 12:54:47;;;;;;;16.02;5.20;;;;;;;22.91;38.62;98300.44;2072956;28;20153;-79